Time;durP1;ratioP1;P1;durP2;ratioP2;P2;SDS_P1;SDS_P2;PMS_P1;PMS_P2;Temp;Humidity;BMP_temperature;BMP_pressure;BME280_temperature;BME280_humidity;BME280_pressure;Samples;Min_cycle;Max_cycle;Signal;HPM_P1;HPM_P2
2022/08/22 00:00:11;;;;;;;7.13;3.38;;;19.90;62.20;;;;;;5115579;28;20047;-72
2022/08/22 00:03:10;;;;;;;5.55;3.50;;;19.90;62.50;;;;;;5115529;28;20024;-72
2022/08/22 00:05:38;;;;;;;7.13;3.47;;;19.90;62.20;;;;;;5115473;28;20024;-72
2022/08/22 00:08:20;;;;;;;6.75;3.80;;;19.90;61.90;;;;;;5115367;28;20056;-72
2022/08/22 00:11:11;;;;;;;9.95;3.88;;;19.90;62.60;;;;;;5115074;28;20044;-72
2022/08/22 00:13:52;;;;;;;7.17;3.50;;;19.90;62.10;;;;;;5115494;28;20023;-72
2022/08/22 00:16:37;;;;;;;8.93;3.72;;;19.80;62.30;;;;;;5115252;28;20031;-72
2022/08/22 00:19:29;;;;;;;7.55;3.38;;;19.80;62.40;;;;;;5115322;28;20452;-72
2022/08/22 00:22:03;;;;;;;5.15;3.00;;;19.80;62.50;;;;;;5111112;28;20036;-72
2022/08/22 00:25:09;;;;;;;9.02;3.60;;;19.80;62.30;;;;;;5115240;28;20048;-72
2022/08/22 00:27:47;;;;;;;6.22;3.35;;;19.70;62.90;;;;;;5115026;28;20026;-72
2022/08/22 00:30:16;;;;;;;5.40;3.03;;;19.70;62.80;;;;;;5114844;28;20047;-73
2022/08/22 00:33:00;;;;;;;6.65;3.17;;;19.70;62.60;;;;;;5114896;28;20024;-72
2022/08/22 00:35:35;;;;;;;6.55;3.50;;;19.80;63.30;;;;;;5114910;28;20020;-72
2022/08/22 00:38:16;;;;;;;7.35;3.40;;;19.70;62.60;;;;;;5114818;28;20031;-72
2022/08/22 00:40:47;;;;;;;5.68;3.50;;;19.70;62.50;;;;;;5114782;28;20056;-73
2022/08/22 00:43:33;;;;;;;5.40;3.00;;;19.60;63.10;;;;;;5114899;28;20024;-73
2022/08/22 00:46:22;;;;;;;6.72;3.50;;;19.70;63.10;;;;;;5113964;28;20024;-72
2022/08/22 00:49:01;;;;;;;5.68;3.55;;;19.60;63.20;;;;;;5114780;28;20024;-72
2022/08/22 00:52:06;;;;;;;10.15;3.80;;;19.60;63.00;;;;;;5114486;28;20024;-72
2022/08/22 00:55:02;;;;;;;4.72;2.88;;;19.50;63.60;;;;;;5108218;28;20031;-72
2022/08/22 00:57:54;;;;;;;7.72;3.65;;;19.60;63.90;;;;;;5114614;28;20024;-72
2022/08/22 01:00:28;;;;;;;7.40;3.53;;;19.50;64.30;;;;;;5114470;28;20024;-72
2022/08/22 01:03:25;;;;;;;6.03;3.13;;;19.40;64.60;;;;;;5114376;28;20258;-73
2022/08/22 01:06:36;;;;;;;7.45;3.35;;;19.40;65.00;;;;;;5114431;28;20056;-72
2022/08/22 01:09:16;;;;;;;5.85;3.17;;;19.30;64.60;;;;;;5111733;28;20052;-72
2022/08/22 01:11:47;;;;;;;6.22;2.97;;;19.30;64.80;;;;;;5113954;28;20050;-72
2022/08/22 01:14:22;;;;;;;8.57;3.35;;;19.30;64.80;;;;;;5114322;28;20023;-72
2022/08/22 01:16:54;;;;;;;9.48;3.70;;;19.20;64.80;;;;;;5114081;28;20020;-72
2022/08/22 01:19:38;;;;;;;6.10;3.17;;;19.20;64.80;;;;;;5114042;28;20024;-72
2022/08/22 01:22:37;;;;;;;7.60;4.07;;;19.20;65.00;;;;;;5114029;28;20034;-72
2022/08/22 01:25:18;;;;;;;6.10;3.58;;;19.20;65.10;;;;;;5114002;28;20045;-72
2022/08/22 01:28:12;;;;;;;7.50;3.40;;;19.10;65.30;;;;;;5113901;28;20058;-72
2022/08/22 01:30:58;;;;;;;7.03;3.40;;;19.20;65.10;;;;;;5113925;28;20028;-72
2022/08/22 01:34:03;;;;;;;6.75;3.30;;;19.20;65.00;;;;;;5113864;28;20020;-72
2022/08/22 01:36:42;;;;;;;8.43;3.53;;;19.20;66.10;;;;;;5113775;28;20028;-72
2022/08/22 01:39:32;;;;;;;12.15;3.75;;;19.10;65.30;;;;;;5113909;28;20024;-72
2022/08/22 01:41:58;;;;;;;5.30;3.28;;;19.20;65.30;;;;;;5113907;28;20024;-72
2022/08/22 01:44:26;;;;;;;7.15;3.17;;;19.20;65.30;;;;;;5112671;28;20051;-72
2022/08/22 01:47:17;;;;;;;6.03;3.20;;;19.20;65.40;;;;;;5113656;28;20084;-72
2022/08/22 01:49:52;;;;;;;6.47;3.05;;;19.20;65.40;;;;;;5113773;28;20020;-72
2022/08/22 01:52:49;;;;;;;6.50;3.20;;;19.20;65.90;;;;;;5113548;28;20053;-72
2022/08/22 01:55:54;;;;;;;4.57;3.20;;;19.10;65.80;;;;;;5113434;28;20019;-72
2022/08/22 01:58:23;;;;;;;6.38;3.28;;;19.20;66.00;;;;;;5113141;28;20024;-73
2022/08/22 02:01:17;;;;;;;5.47;3.28;;;19.20;66.20;;;;;;5113481;28;20039;-72
2022/08/22 02:04:11;;;;;;;6.47;3.30;;;19.30;66.10;;;;;;5113597;28;20050;-72
2022/08/22 02:07:02;;;;;;;6.90;3.47;;;19.40;66.00;;;;;;5113496;28;20042;-72
2022/08/22 02:09:37;;;;;;;5.15;3.33;;;19.40;65.60;;;;;;5113462;28;20020;-72
2022/08/22 02:12:40;;;;;;;6.22;3.00;;;19.40;65.80;;;;;;5113344;28;20036;-73
2022/08/22 02:15:39;;;;;;;22.33;3.50;;;19.30;65.80;;;;;;5113387;28;20039;-72
2022/08/22 02:18:05;;;;;;;4.97;3.05;;;19.10;66.20;;;;;;5113532;28;20024;-73
2022/08/22 02:20:46;;;;;;;8.23;3.25;;;19.10;66.60;;;;;;5113283;28;20043;-72
2022/08/22 02:23:34;;;;;;;5.68;3.10;;;19.10;66.70;;;;;;5113339;28;20035;-72
2022/08/22 02:26:00;;;;;;;8.23;3.45;;;19.20;66.50;;;;;;5113334;28;20176;-72
2022/08/22 02:29:21;;;;;;;8.38;3.20;;;19.20;66.50;;;;;;5113160;28;20028;-73
2022/08/22 02:32:22;;;;;;;7.40;3.25;;;19.30;66.60;;;;;;5090689;28;20098;-73
2022/08/22 02:34:58;;;;;;;9.10;3.15;;;19.30;66.90;;;;;;5109123;28;20095;-73
2022/08/22 02:37:58;;;;;;;5.45;3.03;;;19.30;66.20;;;;;;5113245;28;20074;-72
2022/08/22 02:40:34;;;;;;;6.93;3.33;;;19.20;66.50;;;;;;5113282;28;20024;-73
2022/08/22 02:43:25;;;;;;;8.50;3.53;;;19.20;66.70;;;;;;5113286;28;20020;-73
2022/08/22 02:46:04;;;;;;;6.97;3.28;;;19.30;66.70;;;;;;5113088;28;20035;-72
2022/08/22 02:48:43;;;;;;;9.13;3.60;;;19.30;67.30;;;;;;5113090;28;20048;-73
2022/08/22 02:51:42;;;;;;;9.15;3.60;;;19.30;67.20;;;;;;5113127;28;20020;-73
2022/08/22 02:54:29;;;;;;;7.70;3.90;;;19.40;67.90;;;;;;5113046;28;20080;-72
2022/08/22 02:57:08;;;;;;;11.15;3.65;;;19.40;67.00;;;;;;5113007;28;20046;-73
2022/08/22 02:59:35;;;;;;;5.25;3.58;;;19.30;67.10;;;;;;5113141;28;20024;-72
2022/08/22 03:02:30;;;;;;;8.60;3.50;;;19.30;67.20;;;;;;5112901;28;20050;-72
2022/08/22 03:05:22;;;;;;;6.72;3.72;;;19.30;68.60;;;;;;5112921;28;20020;-73
2022/08/22 03:08:07;;;;;;;6.93;3.67;;;19.20;67.70;;;;;;5113417;28;20036;-72
2022/08/22 03:10:42;;;;;;;6.15;3.30;;;19.10;68.20;;;;;;5115976;28;20036;-73
2022/08/22 03:13:23;;;;;;;7.35;3.60;;;19.10;68.50;;;;;;5116493;28;20024;-73
2022/08/22 03:15:57;;;;;;;8.05;3.38;;;19.00;68.70;;;;;;5116429;28;20020;-73
2022/08/22 03:18:42;;;;;;;6.55;3.40;;;19.10;68.60;;;;;;5116412;28;20042;-73
2022/08/22 03:21:13;;;;;;;7.07;3.50;;;19.10;68.90;;;;;;5116278;28;20032;-72
2022/08/22 03:23:47;;;;;;;9.40;3.40;;;19.00;68.90;;;;;;5116468;28;20041;-73
2022/08/22 03:26:22;;;;;;;7.25;4.00;;;18.90;69.00;;;;;;5116407;28;20027;-73
2022/08/22 03:28:52;;;;;;;5.75;3.40;;;19.00;68.90;;;;;;5116113;28;20020;-73
2022/08/22 03:31:21;;;;;;;8.98;3.88;;;19.10;68.80;;;;;;5116086;28;20035;-73
2022/08/22 03:34:16;;;;;;;10.18;3.88;;;19.10;68.80;;;;;;5116098;28;20031;-73
2022/08/22 03:37:13;;;;;;;7.97;4.20;;;19.10;68.70;;;;;;5113402;28;20123;-73
2022/08/22 03:40:06;;;;;;;9.65;4.25;;;19.10;68.80;;;;;;5115609;28;20036;-73
2022/08/22 03:42:51;;;;;;;5.97;3.88;;;19.10;69.00;;;;;;5116071;28;20035;-73
2022/08/22 03:45:37;;;;;;;6.93;3.60;;;19.10;69.40;;;;;;5115826;28;20031;-73
2022/08/22 03:48:02;;;;;;;6.45;4.15;;;19.00;69.60;;;;;;5115781;28;20099;-73
2022/08/22 03:50:43;;;;;;;6.88;4.13;;;19.00;69.90;;;;;;5115675;28;20024;-72
2022/08/22 03:53:36;;;;;;;8.85;4.05;;;19.00;69.90;;;;;;5115736;28;20028;-73
2022/08/22 03:56:37;;;;;;;7.93;3.65;;;19.10;69.70;;;;;;5115619;28;20046;-73
2022/08/22 03:59:23;;;;;;;6.32;3.70;;;19.10;69.40;;;;;;5115773;28;20043;-73
2022/08/22 04:02:24;;;;;;;6.72;4.22;;;19.00;69.40;;;;;;5115521;28;20037;-73
2022/08/22 04:05:37;;;;;;;11.93;3.80;;;19.00;69.60;;;;;;5115674;28;20028;-73
2022/08/22 04:08:08;;;;;;;;;;;19.10;69.50;;;;;;5093710;28;20032;-73
2022/08/22 04:10:57;;;;;;;7.43;4.10;;;19.00;69.60;;;;;;5107050;28;19962;-73
2022/08/22 04:13:56;;;;;;;10.35;4.60;;;18.80;70.30;;;;;;5112188;28;20033;-73
2022/08/22 04:17:00;;;;;;;8.73;4.10;;;18.80;70.70;;;;;;5115262;28;20024;-73
2022/08/22 04:19:46;;;;;;;6.97;3.92;;;18.80;70.80;;;;;;5115107;28;20027;-73
2022/08/22 04:22:26;;;;;;;11.90;4.85;;;18.80;71.30;;;;;;5115146;28;20080;-73
2022/08/22 04:25:06;;;;;;;9.35;4.20;;;18.70;70.80;;;;;;5115116;28;20039;-73
2022/08/22 04:27:37;;;;;;;8.10;4.05;;;18.60;71.20;;;;;;5115062;28;20064;-73
2022/08/22 04:30:14;;;;;;;7.55;3.65;;;18.60;71.50;;;;;;5114937;28;20073;-73
2022/08/22 04:32:46;;;;;;;7.60;4.43;;;18.60;71.30;;;;;;5114989;28;20055;-73
2022/08/22 04:35:26;;;;;;;10.65;4.13;;;18.40;71.30;;;;;;5114967;28;20024;-73
2022/08/22 04:38:20;;;;;;;6.78;4.20;;;18.50;71.70;;;;;;5114989;28;20024;-73
2022/08/22 04:41:08;;;;;;;9.30;4.00;;;18.50;72.10;;;;;;5111590;28;20107;-73
2022/08/22 04:43:49;;;;;;;7.07;3.70;;;18.40;71.70;;;;;;5114894;28;20024;-73
2022/08/22 04:46:28;;;;;;;6.47;4.23;;;18.40;71.30;;;;;;5114774;28;20020;-73
2022/08/22 04:49:04;;;;;;;9.30;3.97;;;18.40;71.60;;;;;;5114702;28;20083;-73
2022/08/22 04:51:37;;;;;;;9.07;3.97;;;18.40;71.30;;;;;;5114675;28;20026;-73
2022/08/22 04:54:12;;;;;;;6.82;4.00;;;18.30;71.70;;;;;;5114496;28;20083;-73
2022/08/22 04:57:13;;;;;;;5.90;3.45;;;18.40;72.10;;;;;;5114687;28;20024;-73
2022/08/22 04:59:39;;;;;;;6.55;4.05;;;18.40;71.70;;;;;;5114568;28;20081;-73
2022/08/22 05:02:08;;;;;;;7.07;3.80;;;18.50;71.50;;;;;;5114348;28;20020;-73
2022/08/22 05:04:36;;;;;;;6.03;3.75;;;18.50;71.60;;;;;;5114306;28;20056;-73
2022/08/22 05:07:10;;;;;;;9.27;4.32;;;18.40;71.80;;;;;;5114416;28;20024;-73
2022/08/22 05:09:39;;;;;;;9.73;4.03;;;18.40;72.10;;;;;;5114071;28;20027;-73
2022/08/22 05:12:13;;;;;;;8.13;3.97;;;18.50;71.50;;;;;;5114127;28;20023;-73
2022/08/22 05:14:50;;;;;;;9.82;4.03;;;18.50;71.20;;;;;;5114166;28;20016;-73
2022/08/22 05:17:21;;;;;;;8.40;4.28;;;18.40;72.10;;;;;;5114117;28;20062;-73
2022/08/22 05:19:51;;;;;;;7.57;4.00;;;18.40;71.70;;;;;;5114149;28;20020;-73
2022/08/22 05:22:25;;;;;;;9.00;4.28;;;18.40;71.80;;;;;;5114039;28;20020;-73
2022/08/22 05:24:56;;;;;;;10.48;4.25;;;18.40;72.20;;;;;;5114150;28;20028;-73
2022/08/22 05:27:33;;;;;;;8.73;4.20;;;18.40;72.40;;;;;;5113969;28;20024;-73
2022/08/22 05:30:17;;;;;;;9.00;4.53;;;18.40;72.70;;;;;;5113747;28;20020;-73
2022/08/22 05:32:51;;;;;;;7.13;4.15;;;18.30;73.00;;;;;;5113976;28;20031;-73
2022/08/22 05:35:23;;;;;;;7.78;4.28;;;18.30;73.10;;;;;;5113824;28;20040;-73
2022/08/22 05:37:52;;;;;;;6.22;4.45;;;18.20;73.40;;;;;;5113840;28;20035;-73
2022/08/22 05:40:30;;;;;;;7.78;3.78;;;18.30;73.50;;;;;;5113880;28;20072;-73
2022/08/22 05:42:57;;;;;;;13.27;5.00;;;18.40;73.20;;;;;;5113748;28;20042;-73
2022/08/22 05:45:25;;;;;;;13.10;4.78;;;18.50;72.80;;;;;;5113678;28;20028;-73
2022/08/22 05:48:02;;;;;;;7.78;3.95;;;18.60;72.70;;;;;;5113677;28;20201;-73
2022/08/22 05:50:42;;;;;;;7.50;4.05;;;18.50;73.00;;;;;;5113553;28;20107;-73
2022/08/22 05:53:20;;;;;;;10.40;4.40;;;18.50;73.80;;;;;;5113596;28;20012;-73
2022/08/22 05:56:03;;;;;;;10.73;4.38;;;18.50;73.80;;;;;;5113771;28;20368;-73
2022/08/22 05:58:38;;;;;;;6.78;4.32;;;18.60;74.10;;;;;;5113789;28;20043;-73
2022/08/22 06:01:26;;;;;;;10.93;4.40;;;18.60;74.60;;;;;;5113506;28;20024;-73
2022/08/22 06:04:37;;;;;;;7.13;4.60;;;18.70;74.10;;;;;;5113467;28;20046;-73
2022/08/22 06:07:24;;;;;;;11.27;4.53;;;18.80;74.00;;;;;;5091400;28;20412;-73
2022/08/22 06:10:02;;;;;;;9.90;4.82;;;18.90;74.20;;;;;;5091376;28;20176;-73
2022/08/22 06:12:36;;;;;;;9.48;4.80;;;19.00;74.10;;;;;;5107656;28;20101;-73
2022/08/22 06:15:16;;;;;;;7.50;4.82;;;19.10;74.00;;;;;;5113339;28;20028;-73
2022/08/22 06:17:47;;;;;;;9.05;5.07;;;19.20;73.90;;;;;;5113355;28;20031;-73
2022/08/22 06:20:26;;;;;;;8.68;4.85;;;19.30;73.60;;;;;;5113345;28;20016;-73
2022/08/22 06:22:56;;;;;;;6.90;5.00;;;19.30;73.30;;;;;;5113464;28;20031;-73
2022/08/22 06:25:31;;;;;;;9.10;5.00;;;19.40;73.30;;;;;;5113312;28;20084;-73
2022/08/22 06:28:00;;;;;;;9.38;5.35;;;19.50;73.30;;;;;;5113267;28;20024;-73
2022/08/22 06:30:27;;;;;;;11.45;5.40;;;19.50;73.30;;;;;;5113179;28;20042;-73
2022/08/22 06:32:59;;;;;;;9.48;5.78;;;19.60;73.30;;;;;;5113351;28;20353;-73
2022/08/22 06:38:23;;;;;;;10.68;5.93;;;19.70;73.30;;;;;;5113434;28;20031;-73
2022/08/22 06:40:53;;;;;;;11.23;5.60;;;19.70;73.70;;;;;;5113172;28;20437;-73
2022/08/22 06:43:19;;;;;;;9.57;6.28;;;19.70;73.80;;;;;;5114671;28;20028;-72
2022/08/22 06:45:47;;;;;;;10.63;6.45;;;19.80;73.70;;;;;;5116969;28;20024;-73
2022/08/22 06:48:17;;;;;;;9.82;5.88;;;19.80;73.80;;;;;;5116948;28;20055;-73
2022/08/22 06:50:47;;;;;;;10.07;6.55;;;19.90;73.80;;;;;;5116897;28;20020;-73
2022/08/22 06:53:20;;;;;;;11.98;6.00;;;19.90;74.00;;;;;;5116953;28;20024;-73
2022/08/22 06:55:58;;;;;;;11.77;6.03;;;19.90;73.90;;;;;;5116842;28;20025;-73
2022/08/22 06:58:31;;;;;;;10.52;6.03;;;20.00;73.90;;;;;;5116822;28;20023;-73
2022/08/22 07:01:02;;;;;;;12.27;6.63;;;20.10;73.90;;;;;;5116786;28;20050;-73
2022/08/22 07:03:35;;;;;;;11.75;5.63;;;20.10;73.70;;;;;;5116699;28;20047;-73
2022/08/22 07:06:02;;;;;;;13.90;6.15;;;20.10;73.60;;;;;;5116645;28;20047;-73
2022/08/22 07:08:31;;;;;;;9.27;5.95;;;20.20;73.50;;;;;;5115624;28;20024;-73
2022/08/22 07:11:22;;;;;;;12.23;6.07;;;20.30;73.50;;;;;;5116314;28;20044;-72
2022/08/22 07:13:56;;;;;;;12.45;6.30;;;20.40;73.30;;;;;;5116690;28;20020;-73
2022/08/22 07:16:29;;;;;;;11.70;6.10;;;20.40;73.20;;;;;;5116618;28;20024;-73
2022/08/22 07:18:56;;;;;;;13.02;6.35;;;20.50;73.10;;;;;;5116430;28;20043;-73
2022/08/22 07:21:40;;;;;;;9.10;5.55;;;20.50;72.90;;;;;;5116362;28;20032;-73
2022/08/22 07:24:08;;;;;;;13.80;6.05;;;20.60;72.70;;;;;;5116482;28;20035;-73
2022/08/22 07:26:45;;;;;;;10.05;6.15;;;20.60;72.30;;;;;;5116213;28;20024;-73
2022/08/22 07:29:19;;;;;;;11.52;6.75;;;20.70;72.10;;;;;;5116094;28;20036;-73
2022/08/22 07:32:07;;;;;;;10.93;6.25;;;20.70;72.20;;;;;;5115050;28;20038;-73
2022/08/22 07:35:04;;;;;;;10.75;5.88;;;20.80;72.20;;;;;;5116197;28;20031;-72
2022/08/22 07:38:04;;;;;;;13.57;6.63;;;20.80;71.70;;;;;;5116205;28;20093;-72
2022/08/22 07:40:38;;;;;;;12.57;6.50;;;20.80;71.50;;;;;;5116115;28;20024;-72
2022/08/22 07:43:34;;;;;;;11.35;6.45;;;20.90;71.50;;;;;;5115978;28;20024;-73
2022/08/22 07:46:27;;;;;;;9.73;6.03;;;20.90;71.40;;;;;;5115922;28;20020;-73
2022/08/22 07:49:27;;;;;;;10.88;6.30;;;21.00;71.40;;;;;;5115751;28;20027;-73
2022/08/22 07:52:01;;;;;;;13.88;6.05;;;21.10;71.40;;;;;;5115632;28;20030;-73
2022/08/22 07:54:46;;;;;;;12.73;5.72;;;21.00;71.10;;;;;;5115457;28;20095;-73
2022/08/22 07:57:28;;;;;;;11.75;6.13;;;21.00;71.30;;;;;;5115695;28;20443;-73
2022/08/22 07:59:56;;;;;;;12.05;6.10;;;21.10;71.30;;;;;;5115625;28;20028;-73
2022/08/22 08:02:23;;;;;;;10.45;5.75;;;21.10;71.00;;;;;;5115560;28;20357;-73
2022/08/22 08:04:52;;;;;;;11.93;5.45;;;21.20;71.00;;;;;;5115482;28;20083;-73
2022/08/22 08:07:22;;;;;;;12.70;6.45;;;21.20;70.80;;;;;;5115470;28;20024;-73
2022/08/22 08:10:05;;;;;;;12.73;6.28;;;21.30;70.60;;;;;;5114238;28;20016;-73
2022/08/22 08:12:37;;;;;;;12.13;5.93;;;21.30;70.00;;;;;;5115195;28;20046;-73
2022/08/22 08:15:06;;;;;;;8.85;6.20;;;21.20;69.90;;;;;;5115399;28;20491;-73
2022/08/22 08:17:34;;;;;;;13.45;6.97;;;21.10;69.80;;;;;;5115336;28;20036;-73
2022/08/22 08:20:06;;;;;;;12.93;7.05;;;21.20;70.20;;;;;;5114147;28;20028;-73
2022/08/22 08:22:33;;;;;;;11.98;6.78;;;21.20;70.30;;;;;;5115217;28;20471;-73
2022/08/22 08:25:00;;;;;;;11.75;6.13;;;21.30;70.60;;;;;;5115146;28;20020;-73
2022/08/22 08:30:51;;;;;;;10.80;5.70;;;21.50;69.80;;;;;;5114951;28;20038;-73
2022/08/22 08:33:20;;;;;;;15.63;6.85;;;21.60;69.50;;;;;;5115086;28;20041;-73
2022/08/22 08:36:00;;;;;;;10.85;7.20;;;21.70;69.10;;;;;;5114886;28;20020;-73
2022/08/22 08:38:31;;;;;;;11.98;6.45;;;21.80;69.00;;;;;;5115012;28;20016;-73
2022/08/22 08:40:56;;;;;;;15.07;6.70;;;21.90;68.20;;;;;;5114878;28;20026;-73
2022/08/22 08:43:43;;;;;;;9.20;5.75;;;21.90;68.40;;;;;;5114714;28;20029;-73
2022/08/22 08:46:29;;;;;;;12.18;6.22;;;22.10;68.10;;;;;;5114720;28;20076;-73
2022/08/22 08:49:03;;;;;;;10.50;5.20;;;22.20;67.90;;;;;;5114811;28;20083;-72
2022/08/22 08:51:47;;;;;;;13.35;6.10;;;22.30;67.70;;;;;;5114552;28;20024;-73
2022/08/22 08:54:56;;;;;;;8.35;5.40;;;22.30;67.00;;;;;;5114542;28;20020;-73
2022/08/22 08:57:40;;;;;;;11.50;6.18;;;22.30;67.30;;;;;;5114515;28;20051;-73
2022/08/22 09:00:19;;;;;;;12.20;6.00;;;22.30;66.90;;;;;;5114431;28;20025;-73
2022/08/22 09:02:45;;;;;;;10.30;5.93;;;22.30;67.20;;;;;;5114444;28;20088;-73
2022/08/22 09:05:48;;;;;;;9.80;5.35;;;22.30;67.40;;;;;;5113761;28;20028;-73
2022/08/22 09:08:53;;;;;;;8.98;5.20;;;22.50;66.80;;;;;;5112392;28;20036;-73
2022/08/22 09:11:34;;;;;;;14.95;5.72;;;22.60;66.00;;;;;;5109933;28;20092;-73
2022/08/22 09:14:06;;;;;;;8.38;5.13;;;22.60;65.60;;;;;;5114178;28;20066;-73
2022/08/22 09:16:59;;;;;;;10.57;5.20;;;22.70;65.80;;;;;;5114353;28;20024;-73
2022/08/22 09:19:48;;;;;;;11.85;4.80;;;22.80;65.30;;;;;;5114256;28;20326;-73
2022/08/22 09:22:54;;;;;;;9.40;5.07;;;22.90;65.10;;;;;;5114187;28;20026;-72
2022/08/22 09:25:25;;;;;;;7.63;4.80;;;23.00;64.10;;;;;;5114034;28;20035;-73
2022/08/22 09:28:20;;;;;;;8.93;4.50;;;23.00;64.10;;;;;;5114117;28;20112;-72
2022/08/22 09:31:21;;;;;;;7.85;4.22;;;23.00;63.60;;;;;;5113876;28;20049;-73
2022/08/22 09:34:00;;;;;;;11.52;4.07;;;23.10;63.80;;;;;;5113581;28;20068;-73
2022/08/22 09:36:45;;;;;;;6.40;3.47;;;23.20;63.60;;;;;;5113846;28;20028;-73
2022/08/22 09:39:15;;;;;;;6.32;3.28;;;23.30;63.60;;;;;;5113868;28;20035;-73
2022/08/22 09:42:19;;;;;;;9.20;4.40;;;23.30;63.10;;;;;;5113735;28;20020;-73
2022/08/22 09:45:10;;;;;;;11.60;3.50;;;23.40;62.40;;;;;;5074765;28;20052;-72
2022/08/22 09:48:04;;;;;;;6.53;3.65;;;23.40;62.10;;;;;;5091652;28;20029;-73
2022/08/22 09:50:49;;;;;;;7.50;3.45;;;23.40;61.50;;;;;;5109994;28;20040;-72
2022/08/22 09:53:47;;;;;;;10.20;3.40;;;23.40;61.90;;;;;;5113616;28;20020;-72
2022/08/22 09:56:52;;;;;;;10.63;3.42;;;23.40;61.20;;;;;;5113739;28;20463;-73
2022/08/22 09:59:33;;;;;;;7.10;3.33;;;23.50;61.30;;;;;;5113510;28;20053;-73
2022/08/22 10:02:04;;;;;;;6.20;2.60;;;23.50;59.40;;;;;;5113544;28;20087;-72
2022/08/22 10:04:56;;;;;;;7.50;2.38;;;23.50;58.60;;;;;;5113686;28;20443;-72
2022/08/22 10:08:06;;;;;;;5.40;2.58;;;23.60;57.60;;;;;;5110295;28;20063;-72
2022/08/22 10:10:52;;;;;;;5.90;2.40;;;23.60;56.60;;;;;;5113275;28;20071;-72
2022/08/22 10:13:32;;;;;;;3.67;2.17;;;23.60;55.30;;;;;;5113378;28;20030;-72
2022/08/22 10:16:11;;;;;;;5.03;2.40;;;23.60;56.10;;;;;;5113415;28;20024;-72
2022/08/22 10:18:43;;;;;;;8.02;2.55;;;23.70;56.90;;;;;;5117483;28;20055;-72
2022/08/22 10:21:36;;;;;;;5.93;2.33;;;23.70;54.20;;;;;;5117566;28;20070;-72
2022/08/22 10:24:41;;;;;;;5.57;2.33;;;23.80;55.70;;;;;;5117644;28;20028;-72
2022/08/22 10:27:14;;;;;;;9.55;2.28;;;23.80;54.60;;;;;;5106181;28;20032;-72
2022/08/22 10:29:50;;;;;;;3.70;1.90;;;23.90;54.20;;;;;;5117325;28;20020;-72
2022/08/22 10:32:43;;;;;;;4.68;1.90;;;23.90;52.80;;;;;;5117312;28;20043;-72
2022/08/22 10:35:26;;;;;;;6.13;2.30;;;23.90;52.00;;;;;;5117350;28;20025;-73
2022/08/22 10:37:59;;;;;;;5.90;2.10;;;24.00;52.50;;;;;;5117266;28;20024;-72
2022/08/22 10:40:45;;;;;;;6.25;2.05;;;24.00;52.70;;;;;;5117163;28;20023;-72
2022/08/22 10:43:13;;;;;;;6.43;1.88;;;24.10;52.30;;;;;;5117163;28;20023;-72
2022/08/22 10:45:57;;;;;;;7.53;2.00;;;24.30;52.80;;;;;;5117069;28;20022;-72
2022/08/22 10:48:45;;;;;;;5.95;2.20;;;24.40;52.40;;;;;;5117077;28;20040;-72
2022/08/22 10:51:30;;;;;;;5.97;2.40;;;24.50;52.20;;;;;;5116934;28;20024;-72
2022/08/22 10:54:09;;;;;;;6.93;2.13;;;24.50;49.90;;;;;;5115860;28;20479;-72
2022/08/22 10:56:50;;;;;;;6.05;2.38;;;24.50;51.30;;;;;;5116875;28;20016;-72
2022/08/22 10:59:54;;;;;;;8.20;2.53;;;24.70;52.20;;;;;;5116921;28;20031;-72
2022/08/22 11:02:45;;;;;;;4.25;2.00;;;24.90;52.30;;;;;;5113274;28;20066;-72
2022/08/22 11:05:19;;;;;;;6.07;2.53;;;25.00;50.80;;;;;;5116732;28;20016;-72
2022/08/22 11:08:14;;;;;;;6.68;1.85;;;25.00;49.30;;;;;;5116696;28;20066;-72
2022/08/22 11:11:09;;;;;;;9.07;2.17;;;25.10;48.90;;;;;;5116360;28;20040;-72
2022/08/22 11:14:11;;;;;;;6.18;2.00;;;25.30;48.30;;;;;;5116563;28;20028;-72
2022/08/22 11:17:14;;;;;;;4.97;1.75;;;25.30;47.40;;;;;;5116533;28;20032;-72
2022/08/22 11:19:48;;;;;;;;;;;25.50;48.40;;;;;;5116853;28;20024;-72
2022/08/22 11:22:30;;;;;;;5.88;2.00;;;25.60;48.90;;;;;;5116380;28;19904;-72
2022/08/22 11:25:20;;;;;;;6.93;1.80;;;25.60;48.30;;;;;;5115318;28;20020;-72
2022/08/22 11:28:17;;;;;;;8.90;2.35;;;25.50;46.50;;;;;;5116303;28;20028;-72
2022/08/22 11:31:06;;;;;;;4.10;1.98;;;25.30;45.20;;;;;;5116050;28;20031;-72
2022/08/22 11:33:53;;;;;;;7.03;2.22;;;25.30;47.00;;;;;;5116330;28;20028;-72
2022/08/22 11:36:22;;;;;;;5.18;1.88;;;25.50;48.20;;;;;;5116279;28;20016;-72
2022/08/22 11:39:02;;;;;;;4.97;2.00;;;25.80;47.00;;;;;;5116160;28;20020;-72
2022/08/22 11:41:48;;;;;;;4.38;1.60;;;25.90;46.80;;;;;;5115981;28;20058;-72
2022/08/22 11:44:54;;;;;;;6.25;2.20;;;26.00;46.60;;;;;;5114996;28;20019;-72
2022/08/22 11:47:24;;;;;;;4.85;2.10;;;26.00;44.90;;;;;;5116054;28;20058;-72
2022/08/22 11:50:12;;;;;;;10.70;2.30;;;25.80;43.10;;;;;;5115895;28;20106;-72
2022/08/22 11:52:47;;;;;;;5.85;1.90;;;25.60;42.70;;;;;;5115643;28;20024;-72
2022/08/22 11:55:22;;;;;;;6.68;2.30;;;25.60;44.50;;;;;;5114719;28;20047;-72
2022/08/22 11:58:04;;;;;;;5.55;1.90;;;25.70;45.20;;;;;;5115862;28;20020;-72
2022/08/22 12:01:03;;;;;;;6.03;1.88;;;25.90;45.00;;;;;;5115802;28;20024;-72
2022/08/22 12:03:48;;;;;;;5.03;2.13;;;25.90;42.00;;;;;;5098233;28;20100;-72
2022/08/22 12:06:16;;;;;;;5.45;1.80;;;25.90;42.80;;;;;;5115510;28;20020;-72
2022/08/22 12:08:49;;;;;;;4.40;2.13;;;25.80;42.80;;;;;;5115464;28;20085;-72
2022/08/22 12:11:41;;;;;;;5.90;1.88;;;25.80;43.70;;;;;;5114135;28;20043;-72
2022/08/22 12:14:19;;;;;;;3.80;1.88;;;26.00;44.00;;;;;;5115437;28;20023;-72
2022/08/22 12:16:59;;;;;;;6.45;2.17;;;26.20;43.90;;;;;;5115481;28;20020;-72
2022/08/22 12:19:39;;;;;;;7.05;1.85;;;26.30;44.00;;;;;;5115257;28;20039;-72
2022/08/22 12:22:41;;;;;;;5.10;2.00;;;26.40;44.70;;;;;;5115352;28;20093;-73
2022/08/22 12:25:40;;;;;;;4.65;1.80;;;26.60;43.60;;;;;;5115425;28;20031;-72
2022/08/22 12:28:27;;;;;;;5.68;2.15;;;26.70;43.30;;;;;;5105885;28;20067;-72
2022/08/22 12:31:18;;;;;;;6.03;1.90;;;26.70;43.70;;;;;;5115131;28;20040;-72
2022/08/22 12:33:46;;;;;;;5.38;1.90;;;26.70;42.70;;;;;;5115133;28;20020;-72
2022/08/22 12:36:22;;;;;;;5.50;1.95;;;26.70;42.50;;;;;;5114872;28;20028;-72
2022/08/22 12:39:22;;;;;;;5.63;1.70;;;26.50;41.90;;;;;;5113846;28;20020;-72
2022/08/22 12:42:16;;;;;;;4.80;2.25;;;26.50;42.70;;;;;;5114874;28;20031;-72
2022/08/22 12:45:03;;;;;;;5.15;1.92;;;26.50;41.70;;;;;;5113828;28;20032;-72
2022/08/22 12:48:07;;;;;;;5.22;2.35;;;26.30;41.70;;;;;;5114733;28;20062;-72
2022/08/22 12:50:48;;;;;;;6.70;2.00;;;26.30;43.10;;;;;;5110426;28;20036;-72
2022/08/22 12:54:01;;;;;;;5.38;2.28;;;26.40;44.00;;;;;;5114630;28;20020;-72
2022/08/22 12:56:49;;;;;;;4.07;2.45;;;26.50;43.20;;;;;;5106826;28;20036;-72
2022/08/22 12:59:27;;;;;;;5.35;2.10;;;26.40;41.50;;;;;;5114644;28;20020;-72
2022/08/22 13:01:58;;;;;;;6.13;2.05;;;26.20;41.80;;;;;;5114539;28;20100;-72
2022/08/22 13:04:27;;;;;;;4.00;2.08;;;26.20;42.70;;;;;;5114416;28;20024;-72
2022/08/22 13:07:27;;;;;;;4.82;2.10;;;26.30;42.30;;;;;;5114343;28;20112;-72
2022/08/22 13:10:00;;;;;;;4.50;2.50;;;26.30;41.90;;;;;;5109161;28;20136;-72
2022/08/22 13:12:28;;;;;;;3.65;1.80;;;26.40;42.80;;;;;;5114242;28;20028;-72
2022/08/22 13:15:00;;;;;;;6.07;2.40;;;26.50;42.20;;;;;;5114312;28;20027;-72
2022/08/22 13:17:26;;;;;;;5.40;2.05;;;26.50;43.30;;;;;;5114236;28;20020;-72
2022/08/22 13:20:03;;;;;;;6.10;2.10;;;26.60;43.60;;;;;;5114135;28;20035;-72
2022/08/22 13:22:33;;;;;;;4.63;1.92;;;26.70;43.10;;;;;;5114095;28;20079;-72
2022/08/22 13:25:08;;;;;;;3.20;1.75;;;26.80;43.00;;;;;;5114096;28;20051;-72
2022/08/22 13:27:45;;;;;;;4.85;1.98;;;26.80;42.60;;;;;;5114075;28;20054;-72
2022/08/22 13:30:21;;;;;;;4.65;2.10;;;26.90;42.60;;;;;;5113914;28;20023;-72
2022/08/22 13:32:54;;;;;;;3.97;1.77;;;26.80;42.00;;;;;;5113954;28;20028;-72
2022/08/22 13:35:22;;;;;;;7.57;2.13;;;26.90;42.60;;;;;;5114012;28;20047;-72
2022/08/22 13:37:51;;;;;;;5.72;2.13;;;26.90;42.90;;;;;;5113824;28;20020;-72
2022/08/22 13:40:27;;;;;;;4.72;2.20;;;26.90;42.30;;;;;;5112788;28;20074;-72
2022/08/22 13:43:01;;;;;;;5.72;2.78;;;26.90;42.80;;;;;;5113943;28;20023;-72
2022/08/22 13:45:30;;;;;;;6.15;2.05;;;26.90;43.00;;;;;;5112894;28;20020;-72
2022/08/22 13:47:59;;;;;;;6.25;2.30;;;26.80;43.20;;;;;;5113828;28;20016;-72
2022/08/22 13:50:29;;;;;;;3.40;1.88;;;26.80;42.90;;;;;;5113598;28;20020;-72
2022/08/22 13:53:09;;;;;;;5.38;1.70;;;26.80;42.80;;;;;;5113281;28;20016;-72
2022/08/22 13:55:46;;;;;;;4.25;1.73;;;26.80;42.90;;;;;;5113774;28;20038;-72
2022/08/22 13:58:27;;;;;;;12.43;2.95;;;26.80;43.10;;;;;;5113602;28;20072;-72
2022/08/22 14:01:19;;;;;;;3.55;2.00;;;26.80;43.30;;;;;;5112572;28;20058;-72
2022/08/22 14:04:10;;;;;;;4.30;1.88;;;26.80;42.60;;;;;;5113557;28;20031;-73
2022/08/22 14:07:02;;;;;;;4.82;2.30;;;26.80;43.30;;;;;;5113634;28;20028;-72